createdAt,value
2017-08-04T00:02:02.018Z,20.00
2017-08-04T00:04:31.860Z,19.90
2017-08-04T00:07:02.869Z,20.00
2017-08-04T00:09:31.278Z,19.90
2017-08-04T00:11:59.898Z,19.90
2017-08-04T00:14:28.196Z,19.90
2017-08-04T00:16:56.539Z,19.90
2017-08-04T00:19:24.831Z,19.90
2017-08-04T00:21:53.154Z,19.90
2017-08-04T00:24:21.449Z,19.90
2017-08-04T00:26:50.767Z,19.80
2017-08-04T00:29:19.814Z,19.80
2017-08-04T00:31:48.907Z,19.70
2017-08-04T00:34:17.226Z,19.70
2017-08-04T00:36:46.295Z,19.60
2017-08-04T00:39:14.601Z,19.60
2017-08-04T00:41:42.926Z,19.60
2017-08-04T00:44:11.256Z,19.60
2017-08-04T00:46:39.571Z,19.60
2017-08-04T00:49:08.106Z,19.60
2017-08-04T00:51:37.155Z,19.80
2017-08-04T00:54:05.452Z,19.70
2017-08-04T00:56:33.763Z,19.90
2017-08-04T00:59:02.071Z,19.90
2017-08-04T01:01:30.411Z,20.00
2017-08-04T01:03:58.722Z,20.10
2017-08-04T01:06:27.044Z,20.10
2017-08-04T01:08:55.339Z,20.10
2017-08-04T01:11:23.927Z,20.00
2017-08-04T01:13:52.986Z,19.90
2017-08-04T01:16:22.075Z,19.90
2017-08-04T01:18:50.422Z,19.80
2017-08-04T01:21:18.720Z,19.90
2017-08-04T01:23:47.028Z,19.90
2017-08-04T01:26:16.090Z,20.00
2017-08-04T01:28:44.533Z,20.00
2017-08-04T01:31:12.854Z,20.10
2017-08-04T01:33:41.148Z,20.10
2017-08-04T01:36:09.477Z,20.10
2017-08-04T01:38:37.779Z,20.00
2017-08-04T01:41:06.095Z,20.00
2017-08-04T01:43:35.208Z,19.90
2017-08-04T01:46:03.519Z,19.90
2017-08-04T01:48:31.817Z,19.90
2017-08-04T01:51:00.238Z,20.00
2017-08-04T01:53:28.537Z,20.00
2017-08-04T01:55:56.839Z,20.00
2017-08-04T01:58:25.175Z,19.90
2017-08-04T02:00:53.479Z,19.90
2017-08-04T02:03:21.813Z,19.90
2017-08-04T02:05:50.110Z,19.90
2017-08-04T02:08:18.855Z,19.80
2017-08-04T02:10:47.142Z,19.70
2017-08-04T02:13:15.444Z,19.70
2017-08-04T02:15:43.803Z,19.70
2017-08-04T02:18:12.860Z,19.60
2017-08-04T02:20:41.171Z,19.60
2017-08-04T02:23:09.481Z,19.60
2017-08-04T02:25:37.788Z,19.70
2017-08-04T02:28:06.086Z,19.70
2017-08-04T02:30:35.176Z,19.80
2017-08-04T02:33:03.466Z,19.70
2017-08-04T02:35:32.650Z,19.80
2017-08-04T02:38:01.735Z,19.90
2017-08-04T02:40:30.024Z,19.80
2017-08-04T02:42:59.115Z,19.90
2017-08-04T02:45:27.394Z,19.80
2017-08-04T02:47:56.473Z,19.80
2017-08-04T02:50:25.555Z,19.70
2017-08-04T02:52:53.883Z,19.70
2017-08-04T02:55:22.200Z,19.70
2017-08-04T02:57:50.524Z,19.60
2017-08-04T03:00:19.584Z,19.60
2017-08-04T03:02:47.987Z,19.60
2017-08-04T03:05:17.060Z,19.60
2017-08-04T03:07:45.354Z,19.60
2017-08-04T03:10:14.438Z,19.80
2017-08-04T03:12:42.735Z,19.80
2017-08-04T03:15:11.836Z,19.90
2017-08-04T03:17:40.902Z,19.90
2017-08-04T03:20:09.221Z,19.80
2017-08-04T03:22:37.516Z,19.80
2017-08-04T03:25:05.830Z,19.90
2017-08-04T03:27:34.118Z,19.90
2017-08-04T03:30:03.343Z,19.90
2017-08-04T03:32:31.645Z,19.80
2017-08-04T03:34:59.944Z,19.90
2017-08-04T03:37:28.273Z,19.90
2017-08-04T03:39:56.576Z,20.00
2017-08-04T03:42:24.890Z,20.00
2017-08-04T03:44:53.221Z,20.00
2017-08-04T03:47:21.558Z,20.00
2017-08-04T03:49:49.842Z,20.00
2017-08-04T03:52:18.159Z,19.90
2017-08-04T03:54:46.460Z,19.90
2017-08-04T03:57:15.130Z,19.80
2017-08-04T03:59:43.426Z,19.80
2017-08-04T04:02:11.727Z,19.90
2017-08-04T04:04:40.810Z,19.90
2017-08-04T04:07:09.883Z,20.00
2017-08-04T04:09:38.197Z,19.90
2017-08-04T04:12:07.251Z,20.00
2017-08-04T04:14:36.357Z,20.00
2017-08-04T04:17:04.667Z,20.00
2017-08-04T04:19:32.982Z,20.10
2017-08-04T04:22:01.275Z,20.10
2017-08-04T04:24:29.630Z,20.10
2017-08-04T04:26:57.915Z,20.00
2017-08-04T04:29:26.342Z,20.10
2017-08-04T04:31:55.405Z,20.20
2017-08-04T04:34:23.709Z,20.20
2017-08-04T04:36:52.019Z,20.20
2017-08-04T04:39:20.320Z,20.20
2017-08-04T04:41:48.618Z,20.30
2017-08-04T04:44:16.937Z,20.30
2017-08-04T04:46:45.252Z,20.30
2017-08-04T04:49:13.559Z,20.30
2017-08-04T04:51:41.874Z,20.30
2017-08-04T04:54:10.158Z,20.30
2017-08-04T04:56:38.467Z,20.30
2017-08-04T04:59:06.924Z,20.30
2017-08-04T05:01:35.367Z,20.30
2017-08-04T05:04:04.427Z,20.40
2017-08-04T05:06:32.719Z,20.40
2017-08-04T05:09:01.817Z,20.50
2017-08-04T05:11:30.211Z,20.50
2017-08-04T05:13:58.539Z,20.50
2017-08-04T05:16:26.823Z,20.50
2017-08-04T05:18:55.142Z,20.50
2017-08-04T05:21:23.452Z,20.50
2017-08-04T05:23:51.787Z,20.50
2017-08-04T05:26:20.843Z,20.60
2017-08-04T05:28:49.151Z,20.60
2017-08-04T05:31:18.212Z,20.60
2017-08-04T05:33:46.541Z,20.60
2017-08-04T05:36:14.843Z,20.50
2017-08-04T05:38:43.174Z,20.60
2017-08-04T05:41:12.236Z,20.70
2017-08-04T05:43:40.675Z,20.60
2017-08-04T05:46:08.969Z,20.80
2017-08-04T05:48:37.507Z,20.80
2017-08-04T05:51:06.590Z,20.80
2017-08-04T05:53:34.881Z,20.70
2017-08-04T05:56:03.983Z,20.90
2017-08-04T05:58:32.294Z,20.80
2017-08-04T06:01:00.636Z,21.00
2017-08-04T06:03:29.063Z,21.10
2017-08-04T06:05:57.369Z,21.20
2017-08-04T06:08:25.668Z,21.30
2017-08-04T06:10:55.675Z,21.70
2017-08-04T06:13:24.730Z,21.70
2017-08-04T06:15:53.450Z,21.70
2017-08-04T06:18:22.516Z,22.00
2017-08-04T06:20:50.820Z,21.90
2017-08-04T06:23:19.894Z,22.00
2017-08-04T06:25:48.190Z,22.00
2017-08-04T06:28:16.586Z,22.00
2017-08-04T06:30:45.635Z,22.10
2017-08-04T06:33:13.952Z,22.10
2017-08-04T06:35:42.255Z,22.10
2017-08-04T06:38:10.587Z,22.00
2017-08-04T06:40:39.666Z,21.90
2017-08-04T06:43:07.983Z,21.90
2017-08-04T06:45:36.277Z,21.80
2017-08-04T06:48:16.489Z,21.70
2017-08-04T06:50:56.872Z,21.60
2017-08-04T06:53:37.826Z,21.60
2017-08-04T06:56:07.728Z,21.60
2017-08-04T06:58:36.056Z,21.60
2017-08-04T07:01:04.332Z,21.70
2017-08-04T07:03:32.752Z,21.80
2017-08-04T07:06:01.058Z,21.90
2017-08-04T07:08:30.130Z,22.00
2017-08-04T07:10:58.427Z,22.00
2017-08-04T07:13:27.482Z,22.00
2017-08-04T07:15:55.965Z,21.90
2017-08-04T07:18:24.275Z,22.10
2017-08-04T07:20:53.381Z,22.40
2017-08-04T07:23:22.440Z,22.50
2017-08-04T07:25:51.067Z,22.40
2017-08-04T07:28:19.375Z,22.50
2017-08-04T07:30:47.699Z,22.30
2017-08-04T07:33:16.793Z,22.40
2017-08-04T07:35:45.877Z,22.70
2017-08-04T07:38:14.167Z,22.70
2017-08-04T07:40:43.258Z,23.10
2017-08-04T07:43:12.347Z,23.40
2017-08-04T07:45:41.436Z,23.60
2017-08-04T07:48:09.858Z,23.50
2017-08-04T07:50:38.181Z,23.80
2017-08-04T07:53:06.538Z,24.00
2017-08-04T07:55:34.890Z,24.20
2017-08-04T07:58:03.267Z,24.30
2017-08-04T08:00:31.572Z,24.50
2017-08-04T08:02:59.903Z,24.70
2017-08-04T08:05:28.196Z,24.60
2017-08-04T08:07:56.521Z,24.70
2017-08-04T08:10:24.818Z,24.60
2017-08-04T08:12:54.029Z,24.00
2017-08-04T08:15:23.099Z,23.90
2017-08-04T08:17:51.506Z,23.80
2017-08-04T08:20:19.803Z,24.10
2017-08-04T08:22:48.101Z,24.30
2017-08-04T08:25:16.411Z,24.20
2017-08-04T08:27:45.481Z,23.60
2017-08-04T08:30:13.793Z,23.60
2017-08-04T08:32:42.106Z,23.60
2017-08-04T08:35:10.427Z,23.50
2017-08-04T08:37:38.708Z,23.50
2017-08-04T08:40:07.036Z,23.80
2017-08-04T08:42:35.331Z,23.90
2017-08-04T08:45:03.680Z,24.20
2017-08-04T08:47:32.014Z,24.20
2017-08-04T08:50:00.317Z,24.40
2017-08-04T08:52:28.638Z,24.40
2017-08-04T08:54:56.915Z,24.20
2017-08-04T08:57:25.249Z,24.10
2017-08-04T08:59:53.559Z,24.00
2017-08-04T09:02:21.887Z,23.90
2017-08-04T09:04:50.186Z,23.80
2017-08-04T09:07:18.507Z,23.80
2017-08-04T09:09:46.796Z,23.80
2017-08-04T09:12:15.616Z,23.50
2017-08-04T09:14:43.907Z,23.50
2017-08-04T09:17:12.231Z,23.40
2017-08-04T09:19:40.872Z,23.40
2017-08-04T09:22:09.171Z,23.30
2017-08-04T09:24:37.496Z,23.20
2017-08-04T09:27:05.790Z,23.10
2017-08-04T09:29:34.123Z,23.10
2017-08-04T09:32:02.434Z,23.20
2017-08-04T09:34:30.833Z,23.30
2017-08-04T09:36:59.126Z,23.50
2017-08-04T09:39:27.500Z,23.60
2017-08-04T09:41:55.810Z,23.70
2017-08-04T09:44:26.315Z,23.80
2017-08-04T09:46:55.987Z,23.90
2017-08-04T09:49:24.321Z,23.80
2017-08-04T09:51:53.410Z,24.10
2017-08-04T09:54:21.839Z,24.00
2017-08-04T09:56:50.132Z,24.10
2017-08-04T09:59:18.457Z,24.20
2017-08-04T10:01:46.807Z,24.40
2017-08-04T10:04:15.097Z,24.40
2017-08-04T10:06:43.428Z,24.40
2017-08-04T10:09:11.745Z,24.20
2017-08-04T10:11:40.087Z,24.40
2017-08-04T10:14:08.446Z,24.20
2017-08-04T10:16:37.518Z,23.60
2017-08-04T10:19:05.814Z,23.60
2017-08-04T10:21:34.146Z,23.80
2017-08-04T10:24:02.454Z,23.90
2017-08-04T10:26:31.548Z,23.90
2017-08-04T10:28:59.847Z,23.90
2017-08-04T10:31:28.482Z,24.00
2017-08-04T10:33:56.766Z,23.80
2017-08-04T10:36:25.566Z,23.50
2017-08-04T10:38:54.014Z,23.70
2017-08-04T10:41:22.318Z,24.00
2017-08-04T10:43:51.426Z,24.40
2017-08-04T10:46:19.715Z,24.30
2017-08-04T10:48:48.798Z,24.60
2017-08-04T10:51:17.091Z,24.60
2017-08-04T10:53:45.437Z,24.60
2017-08-04T10:56:13.745Z,24.40
2017-08-04T10:58:42.164Z,24.30
2017-08-04T11:01:10.455Z,24.50
2017-08-04T11:03:39.297Z,24.80
2017-08-04T11:06:08.375Z,25.40
2017-08-04T11:08:36.689Z,25.40
2017-08-04T11:11:05.002Z,25.60
2017-08-04T11:13:33.311Z,25.60
2017-08-04T11:16:01.621Z,25.50
2017-08-04T11:18:29.980Z,25.50
2017-08-04T11:20:58.311Z,25.60
2017-08-04T11:23:26.596Z,25.40
2017-08-04T11:25:54.913Z,25.30
2017-08-04T11:28:23.237Z,25.40
2017-08-04T11:30:51.939Z,25.50
2017-08-04T11:33:21.019Z,25.20
2017-08-04T11:35:49.324Z,25.10
2017-08-04T11:38:17.649Z,25.20
2017-08-04T11:40:45.941Z,25.50
2017-08-04T11:43:14.265Z,25.70
2017-08-04T11:45:42.589Z,25.50
2017-08-04T11:48:10.938Z,25.20
2017-08-04T11:50:39.233Z,25.20
2017-08-04T11:53:07.530Z,25.40
2017-08-04T11:55:35.828Z,25.50
2017-08-04T11:58:04.254Z,25.70
2017-08-04T12:00:32.561Z,25.60
2017-08-04T12:03:00.851Z,25.50
2017-08-04T12:05:29.955Z,25.30
2017-08-04T12:07:58.264Z,25.30
2017-08-04T12:10:26.687Z,25.10
2017-08-04T12:12:55.096Z,25.10
2017-08-04T12:15:23.387Z,24.90
2017-08-04T12:17:51.713Z,24.80
2017-08-04T12:20:20.051Z,24.90
2017-08-04T12:22:48.366Z,24.90
2017-08-04T12:25:16.656Z,25.10
2017-08-04T12:27:44.977Z,25.40
2017-08-04T12:30:13.267Z,25.30
2017-08-04T12:32:42.407Z,24.70
2017-08-04T12:35:10.738Z,24.70
2017-08-04T12:37:39.055Z,24.70
2017-08-04T12:40:07.354Z,24.50
2017-08-04T12:42:36.551Z,24.60
2017-08-04T12:45:04.868Z,24.60
2017-08-04T12:47:33.164Z,24.70
2017-08-04T12:50:01.493Z,25.00
2017-08-04T12:52:29.791Z,25.10
2017-08-04T12:54:58.111Z,25.10
2017-08-04T12:57:27.199Z,25.20
2017-08-04T12:59:55.520Z,25.20
2017-08-04T13:02:23.818Z,25.10
2017-08-04T13:04:52.142Z,25.10
2017-08-04T13:07:20.459Z,25.10
2017-08-04T13:09:49.007Z,25.20
2017-08-04T13:12:17.332Z,25.20
2017-08-04T13:14:45.645Z,25.20
2017-08-04T13:17:14.069Z,25.00
2017-08-04T13:19:42.372Z,25.10
2017-08-04T13:22:10.686Z,24.80
2017-08-04T13:24:39.756Z,25.00
2017-08-04T13:27:08.102Z,25.00
2017-08-04T13:29:36.382Z,25.20
2017-08-04T13:32:04.711Z,25.10
2017-08-04T13:34:33.024Z,24.80
2017-08-04T13:37:01.334Z,24.90
2017-08-04T13:39:29.627Z,25.00
2017-08-04T13:41:57.953Z,25.10
2017-08-04T13:44:26.250Z,25.00
2017-08-04T13:46:54.579Z,25.00
2017-08-04T13:49:23.632Z,25.30
2017-08-04T13:51:52.063Z,25.30
2017-08-04T13:54:20.356Z,25.10
2017-08-04T13:56:48.655Z,25.00
2017-08-04T13:59:16.967Z,24.90
2017-08-04T14:01:45.265Z,24.90
2017-08-04T14:04:13.585Z,25.10
2017-08-04T14:06:41.886Z,25.20
2017-08-04T14:09:10.297Z,25.30
2017-08-04T14:11:39.362Z,25.10
2017-08-04T14:14:08.589Z,25.10
2017-08-04T14:16:36.858Z,25.10
2017-08-04T14:19:05.158Z,25.20
2017-08-04T14:21:33.468Z,25.00
2017-08-04T14:24:01.759Z,25.00
2017-08-04T14:26:30.066Z,25.00
2017-08-04T14:28:59.124Z,24.80
2017-08-04T14:31:27.436Z,24.80
2017-08-04T14:33:56.503Z,24.50
2017-08-04T14:36:24.824Z,24.50
2017-08-04T14:38:53.123Z,24.50
2017-08-04T14:41:21.655Z,24.50
2017-08-04T14:43:50.727Z,24.50
2017-08-04T14:46:19.006Z,24.40
2017-08-04T14:48:48.478Z,24.90
2017-08-04T14:51:16.768Z,24.80
2017-08-04T14:53:45.221Z,24.90
2017-08-04T14:56:13.514Z,25.00
2017-08-04T14:58:41.831Z,24.90
2017-08-04T15:01:10.908Z,25.00
2017-08-04T15:03:39.927Z,24.90
2017-08-04T15:06:09.018Z,24.90
2017-08-04T15:08:38.214Z,24.90
2017-08-04T15:11:06.499Z,24.80
2017-08-04T15:13:34.816Z,25.00
2017-08-04T15:16:03.125Z,25.00
2017-08-04T15:18:31.432Z,25.10
2017-08-04T15:20:59.892Z,25.20
2017-08-04T15:23:28.221Z,25.10
2017-08-04T15:25:56.547Z,25.00
2017-08-04T15:28:25.670Z,24.70
2017-08-04T15:30:54.043Z,24.70
2017-08-04T15:33:23.109Z,24.40
2017-08-04T15:35:51.544Z,24.40
2017-08-04T15:38:19.855Z,24.40
2017-08-04T15:40:49.257Z,24.30
2017-08-04T15:43:17.553Z,24.30
2017-08-04T15:45:46.628Z,24.40
2017-08-04T15:48:15.056Z,24.40
2017-08-04T15:50:43.351Z,24.80
2017-08-04T15:53:11.642Z,25.10
2017-08-04T15:55:39.968Z,25.10
2017-08-04T15:58:08.240Z,25.10
2017-08-04T16:00:36.543Z,24.90
2017-08-04T16:03:04.846Z,24.70
2017-08-04T16:05:33.266Z,24.50
2017-08-04T16:08:02.397Z,24.50
2017-08-04T16:10:30.690Z,24.50
2017-08-04T16:12:59.024Z,24.50
2017-08-04T16:15:28.079Z,24.90
2017-08-04T16:17:56.390Z,24.90
2017-08-04T16:20:24.682Z,25.30
2017-08-04T16:22:53.096Z,25.80
2017-08-04T16:25:21.430Z,26.00
2017-08-04T16:27:49.709Z,25.60
2017-08-04T16:30:18.782Z,25.30
2017-08-04T16:32:47.077Z,25.30
2017-08-04T16:35:16.143Z,25.10
2017-08-04T16:37:44.466Z,25.10
2017-08-04T16:40:12.791Z,25.20
2017-08-04T16:42:41.087Z,25.20
2017-08-04T16:45:09.431Z,25.00
2017-08-04T16:47:37.725Z,25.30
2017-08-04T16:50:06.222Z,26.00
2017-08-04T16:52:35.294Z,26.50
2017-08-04T16:55:03.603Z,26.40
2017-08-04T16:57:32.705Z,25.40
2017-08-04T17:00:02.119Z,24.80
2017-08-04T17:02:30.435Z,24.70
2017-08-04T17:04:58.733Z,24.40
2017-08-04T17:07:27.054Z,24.20
2017-08-04T17:09:55.334Z,24.00
2017-08-04T17:12:23.667Z,23.90
2017-08-04T17:14:51.955Z,23.80
2017-08-04T17:17:20.291Z,23.70
2017-08-04T17:19:48.595Z,23.60
2017-08-04T17:22:17.013Z,23.40
2017-08-04T17:24:45.329Z,23.30
2017-08-04T17:27:13.650Z,23.30
2017-08-04T17:29:42.735Z,23.20
2017-08-04T17:32:11.810Z,23.20
2017-08-04T17:34:40.121Z,23.10
2017-08-04T17:37:08.443Z,23.40
2017-08-04T17:39:36.879Z,23.40
2017-08-04T17:42:05.174Z,23.30
2017-08-04T17:44:33.541Z,23.20
2017-08-04T17:47:01.875Z,23.10
2017-08-04T17:49:30.192Z,23.10
2017-08-04T17:51:58.547Z,23.10
2017-08-04T17:54:27.252Z,23.10
2017-08-04T17:56:55.588Z,23.10
2017-08-04T17:59:23.883Z,23.00
2017-08-04T18:01:52.987Z,22.80
2017-08-04T18:04:22.061Z,22.70
2017-08-04T18:06:50.520Z,22.70
2017-08-04T18:09:18.842Z,22.60
2017-08-04T18:11:49.047Z,22.50
2017-08-04T18:14:18.180Z,22.40
2017-08-04T18:16:46.486Z,22.40
2017-08-04T18:19:14.804Z,22.30
2017-08-04T18:21:43.866Z,22.30
2017-08-04T18:24:12.195Z,22.20
2017-08-04T18:26:40.503Z,22.30
2017-08-04T18:29:08.841Z,22.30
2017-08-04T18:31:37.157Z,22.30
2017-08-04T18:34:05.631Z,22.20
2017-08-04T18:36:33.984Z,22.20
2017-08-04T18:39:02.287Z,22.20
2017-08-04T18:41:30.615Z,22.20
2017-08-04T18:43:59.793Z,22.20
2017-08-04T18:46:28.103Z,22.10
2017-08-04T18:48:57.163Z,22.10
2017-08-04T18:51:28.190Z,22.10
2017-08-04T18:53:56.591Z,22.00
2017-08-04T18:56:25.800Z,21.90
2017-08-04T18:58:54.202Z,21.80
2017-08-04T19:01:22.507Z,21.80
2017-08-04T19:03:51.094Z,21.80
2017-08-04T19:06:19.873Z,21.70
2017-08-04T19:08:48.275Z,21.70
2017-08-04T19:11:16.569Z,21.60
2017-08-04T19:13:45.668Z,21.60
2017-08-04T19:16:13.986Z,21.50
2017-08-04T19:18:42.349Z,21.60
2017-08-04T19:21:10.664Z,21.60
2017-08-04T19:23:38.983Z,21.60
2017-08-04T19:26:08.050Z,21.60
2017-08-04T19:28:36.374Z,21.50
2017-08-04T19:31:04.704Z,21.60
2017-08-04T19:33:33.213Z,21.60
2017-08-04T19:36:01.531Z,21.60
2017-08-04T19:38:29.822Z,21.50
2017-08-04T19:40:58.139Z,21.50
2017-08-04T19:43:26.420Z,21.50
2017-08-04T19:45:54.743Z,21.50
2017-08-04T19:48:23.053Z,21.50
2017-08-04T19:50:51.362Z,21.40
2017-08-04T19:53:19.669Z,21.40
2017-08-04T19:55:48.081Z,21.40
2017-08-04T19:58:16.369Z,21.30
2017-08-04T20:00:44.664Z,21.40
2017-08-04T20:03:12.983Z,21.40
2017-08-04T20:05:41.295Z,21.30
2017-08-04T20:08:10.385Z,21.20
2017-08-04T20:10:39.466Z,21.10
2017-08-04T20:13:07.774Z,21.10
2017-08-04T20:15:36.838Z,21.00
2017-08-04T20:18:06.060Z,21.00
2017-08-04T20:20:34.370Z,20.90
2017-08-04T20:23:02.702Z,20.90
2017-08-04T20:25:31.041Z,20.80
2017-08-04T20:27:59.338Z,20.80
2017-08-04T20:30:27.646Z,20.70
2017-08-04T20:32:55.958Z,20.60
2017-08-04T20:35:24.276Z,20.50
2017-08-04T20:37:52.583Z,20.50
2017-08-04T20:40:21.776Z,20.50
2017-08-04T20:42:50.902Z,20.40
2017-08-04T20:45:19.587Z,20.40
2017-08-04T20:47:47.888Z,20.40
2017-08-04T20:50:16.197Z,20.40
2017-08-04T20:52:45.290Z,20.40
2017-08-04T20:55:13.587Z,20.30
2017-08-04T20:57:41.907Z,20.30
2017-08-04T21:00:10.227Z,20.30
2017-08-04T21:02:38.554Z,20.40
2017-08-04T21:05:06.871Z,20.40
2017-08-04T21:07:35.217Z,20.30
2017-08-04T21:10:03.538Z,20.30
2017-08-04T21:12:32.788Z,20.30
2017-08-04T21:15:01.089Z,20.30
2017-08-04T21:17:30.173Z,20.10
2017-08-04T21:19:58.511Z,20.10
2017-08-04T21:22:26.805Z,20.10
2017-08-04T21:24:55.138Z,20.00
2017-08-04T21:27:24.196Z,19.90
2017-08-04T21:32:27.231Z,19.80
2017-08-04T21:34:56.431Z,19.70
2017-08-04T21:37:25.488Z,19.60
2017-08-04T21:39:53.778Z,19.60
2017-08-04T21:42:22.119Z,19.60
2017-08-04T21:44:50.427Z,19.50
2017-08-04T21:47:18.734Z,19.50
2017-08-04T21:49:47.782Z,19.40
2017-08-04T21:52:16.099Z,19.40
2017-08-04T21:54:45.167Z,19.30
2017-08-04T21:57:13.480Z,19.30
2017-08-04T21:59:43.350Z,19.20
2017-08-04T22:02:11.667Z,19.20
2017-08-04T22:04:39.978Z,19.20
2017-08-04T22:07:08.287Z,19.20
2017-08-04T22:09:36.588Z,19.20
2017-08-04T22:12:04.909Z,19.10
2017-08-04T22:14:33.219Z,19.10
2017-08-04T22:17:02.313Z,19.10
2017-08-04T22:19:30.620Z,19.00
2017-08-04T22:21:58.932Z,19.00
2017-08-04T22:24:27.242Z,19.00
2017-08-04T22:26:55.527Z,19.00
2017-08-04T22:29:23.939Z,18.90
2017-08-04T22:31:52.242Z,18.90
2017-08-04T22:34:20.546Z,18.90
2017-08-04T22:36:49.095Z,18.90
2017-08-04T22:39:17.382Z,18.90
2017-08-04T22:41:45.709Z,18.90
2017-08-04T22:44:14.003Z,18.80
2017-08-04T22:46:42.327Z,18.80
2017-08-04T22:49:10.644Z,18.80
2017-08-04T22:51:38.969Z,18.70
2017-08-04T22:54:07.255Z,18.70
2017-08-04T22:56:35.679Z,18.70
2017-08-04T22:59:03.973Z,18.70
2017-08-04T23:01:32.309Z,18.60
2017-08-04T23:04:01.398Z,18.50
2017-08-04T23:06:29.691Z,18.50
2017-08-04T23:08:58.008Z,18.50
2017-08-04T23:11:26.291Z,18.50
2017-08-04T23:13:54.627Z,18.50
2017-08-04T23:16:24.543Z,18.40
2017-08-04T23:18:52.866Z,18.30
2017-08-04T23:21:21.163Z,18.30
2017-08-04T23:23:49.582Z,18.30
2017-08-04T23:26:18.668Z,18.20
2017-08-04T23:28:47.751Z,18.30
2017-08-04T23:31:16.095Z,18.20
2017-08-04T23:33:44.421Z,18.20
2017-08-04T23:36:12.753Z,18.20
2017-08-04T23:38:41.048Z,18.20
2017-08-04T23:41:09.528Z,18.10
2017-08-04T23:43:37.804Z,18.10
2017-08-04T23:46:06.126Z,18.00
2017-08-04T23:48:34.399Z,18.00
2017-08-04T23:51:02.828Z,18.00
2017-08-04T23:53:31.125Z,18.00
2017-08-04T23:56:00.186Z,17.90
2017-08-04T23:58:28.507Z,17.80
